sensor_id;sensor_type;location;lat;lon;timestamp;pressure;altitude;pressure_sealevel;temperature;humidity
60920;BME280;59039;52.108;19.942;2023-03-30T00:01:12;100560.34;;;5.01;54.22
60920;BME280;59039;52.108;19.942;2023-03-30T00:03:38;100557.17;;;5.03;54.16
60920;BME280;59039;52.108;19.942;2023-03-30T00:08:40;100548.41;;;5.05;53.99
60920;BME280;59039;52.108;19.942;2023-03-30T00:11:08;100546.17;;;5.06;53.72
60920;BME280;59039;52.108;19.942;2023-03-30T00:13:35;100548.29;;;5.07;53.76
60920;BME280;59039;52.108;19.942;2023-03-30T00:16:01;100550.86;;;5.08;53.96
60920;BME280;59039;52.108;19.942;2023-03-30T00:18:27;100548.27;;;5.09;53.96
60920;BME280;59039;52.108;19.942;2023-03-30T00:20:53;100549.81;;;5.10;54.17
60920;BME280;59039;52.108;19.942;2023-03-30T00:23:18;100542.67;;;5.12;54.12
60920;BME280;59039;52.108;19.942;2023-03-30T00:25:44;100541.08;;;5.14;54.17
60920;BME280;59039;52.108;19.942;2023-03-30T00:28:10;100545.66;;;5.15;54.23
60920;BME280;59039;52.108;19.942;2023-03-30T00:30:35;100545.34;;;5.17;54.49
60920;BME280;59039;52.108;19.942;2023-03-30T00:33:01;100541.41;;;5.19;54.19
60920;BME280;59039;52.108;19.942;2023-03-30T00:35:26;100540.24;;;5.20;54.56
60920;BME280;59039;52.108;19.942;2023-03-30T00:37:52;100538.92;;;5.21;54.41
60920;BME280;59039;52.108;19.942;2023-03-30T00:40:20;100535.21;;;5.22;54.37
60920;BME280;59039;52.108;19.942;2023-03-30T00:42:46;100534.08;;;5.23;54.55
60920;BME280;59039;52.108;19.942;2023-03-30T00:48:07;100534.60;;;5.26;54.46
60920;BME280;59039;52.108;19.942;2023-03-30T00:53:08;100534.29;;;5.28;54.62
60920;BME280;59039;52.108;19.942;2023-03-30T00:55:36;100532.20;;;5.29;54.57
60920;BME280;59039;52.108;19.942;2023-03-30T00:58:03;100531.90;;;5.31;54.68
60920;BME280;59039;52.108;19.942;2023-03-30T01:00:29;100527.55;;;5.31;54.60
60920;BME280;59039;52.108;19.942;2023-03-30T01:02:58;100520.64;;;5.32;54.74
60920;BME280;59039;52.108;19.942;2023-03-30T01:05:25;100518.45;;;5.33;54.98
60920;BME280;59039;52.108;19.942;2023-03-30T01:07:52;100515.86;;;5.34;54.82
60920;BME280;59039;52.108;19.942;2023-03-30T01:10:18;100515.77;;;5.35;55.04
60920;BME280;59039;52.108;19.942;2023-03-30T01:12:44;100514.05;;;5.36;55.08
60920;BME280;59039;52.108;19.942;2023-03-30T01:15:13;100506.63;;;5.37;54.91
60920;BME280;59039;52.108;19.942;2023-03-30T01:18:01;100505.11;;;5.38;55.22
60920;BME280;59039;52.108;19.942;2023-03-30T01:20:46;100503.23;;;5.39;55.38
60920;BME280;59039;52.108;19.942;2023-03-30T01:34:55;100486.67;;;5.44;55.60
60920;BME280;59039;52.108;19.942;2023-03-30T01:40:26;100477.55;;;5.46;55.93
60920;BME280;59039;52.108;19.942;2023-03-30T01:43:12;100477.64;;;5.47;55.80
60920;BME280;59039;52.108;19.942;2023-03-30T01:45:43;100477.94;;;5.48;55.82
60920;BME280;59039;52.108;19.942;2023-03-30T01:50:52;100476.37;;;5.47;55.86
60920;BME280;59039;52.108;19.942;2023-03-30T01:53:41;100478.14;;;5.47;55.97
60920;BME280;59039;52.108;19.942;2023-03-30T01:56:19;100474.38;;;5.48;55.97
60920;BME280;59039;52.108;19.942;2023-03-30T01:59:17;100472.75;;;5.47;56.20
60920;BME280;59039;52.108;19.942;2023-03-30T02:01:45;100466.95;;;5.48;56.15
60920;BME280;59039;52.108;19.942;2023-03-30T02:04:19;100464.20;;;5.49;56.09
60920;BME280;59039;52.108;19.942;2023-03-30T02:06:53;100462.20;;;5.49;56.32
60920;BME280;59039;52.108;19.942;2023-03-30T02:09:21;100460.43;;;5.51;56.27
60920;BME280;59039;52.108;19.942;2023-03-30T02:11:50;100460.55;;;5.52;56.39
60920;BME280;59039;52.108;19.942;2023-03-30T02:14:28;100463.36;;;5.53;56.27
60920;BME280;59039;52.108;19.942;2023-03-30T02:17:18;100459.73;;;5.53;56.42
60920;BME280;59039;52.108;19.942;2023-03-30T02:19:45;100455.73;;;5.53;56.45
60920;BME280;59039;52.108;19.942;2023-03-30T02:22:14;100459.63;;;5.54;56.36
60920;BME280;59039;52.108;19.942;2023-03-30T02:24:41;100460.13;;;5.55;56.61
60920;BME280;59039;52.108;19.942;2023-03-30T02:27:07;100460.44;;;5.55;56.64
60920;BME280;59039;52.108;19.942;2023-03-30T02:29:38;100455.41;;;5.55;56.65
60920;BME280;59039;52.108;19.942;2023-03-30T02:32:05;100452.08;;;5.56;56.71
60920;BME280;59039;52.108;19.942;2023-03-30T02:35:01;100452.17;;;5.58;56.69
60920;BME280;59039;52.108;19.942;2023-03-30T02:37:54;100445.88;;;5.57;56.93
60920;BME280;59039;52.108;19.942;2023-03-30T02:40:48;100443.77;;;5.57;57.01
60920;BME280;59039;52.108;19.942;2023-03-30T02:43:32;100445.36;;;5.57;57.03
60920;BME280;59039;52.108;19.942;2023-03-30T02:48:56;100436.10;;;5.58;57.29
60920;BME280;59039;52.108;19.942;2023-03-30T02:51:42;100434.04;;;5.59;57.42
60920;BME280;59039;52.108;19.942;2023-03-30T02:57:24;100435.34;;;5.61;57.23
60920;BME280;59039;52.108;19.942;2023-03-30T03:00:17;100435.86;;;5.61;57.67
60920;BME280;59039;52.108;19.942;2023-03-30T03:02:44;100434.02;;;5.62;57.55
60920;BME280;59039;52.108;19.942;2023-03-30T03:05:13;100428.87;;;5.61;57.53
60920;BME280;59039;52.108;19.942;2023-03-30T03:07:42;100430.30;;;5.61;57.45
60920;BME280;59039;52.108;19.942;2023-03-30T03:10:08;100429.56;;;5.61;57.65
60920;BME280;59039;52.108;19.942;2023-03-30T03:12:34;100425.64;;;5.61;57.89
60920;BME280;59039;52.108;19.942;2023-03-30T03:14:59;100420.73;;;5.62;57.65
60920;BME280;59039;52.108;19.942;2023-03-30T03:17:32;100416.42;;;5.62;57.98
60920;BME280;59039;52.108;19.942;2023-03-30T03:20:10;100419.26;;;5.62;57.85
60920;BME280;59039;52.108;19.942;2023-03-30T03:22:36;100414.41;;;5.62;58.16
60920;BME280;59039;52.108;19.942;2023-03-30T03:25:02;100411.83;;;5.63;58.00
60920;BME280;59039;52.108;19.942;2023-03-30T03:27:28;100411.42;;;5.64;57.93
60920;BME280;59039;52.108;19.942;2023-03-30T03:29:53;100404.04;;;5.64;58.21
60920;BME280;59039;52.108;19.942;2023-03-30T03:32:18;100397.71;;;5.64;58.15
60920;BME280;59039;52.108;19.942;2023-03-30T03:34:44;100397.54;;;5.64;58.16
60920;BME280;59039;52.108;19.942;2023-03-30T03:37:09;100390.95;;;5.63;58.20
60920;BME280;59039;52.108;19.942;2023-03-30T03:39:51;100385.55;;;5.63;58.53
60920;BME280;59039;52.108;19.942;2023-03-30T03:42:17;100382.36;;;5.63;58.67
60920;BME280;59039;52.108;19.942;2023-03-30T03:44:42;100376.46;;;5.62;58.86
60920;BME280;59039;52.108;19.942;2023-03-30T03:47:08;100373.42;;;5.62;58.45
60920;BME280;59039;52.108;19.942;2023-03-30T03:49:33;100373.08;;;5.62;58.64
60920;BME280;59039;52.108;19.942;2023-03-30T03:51:59;100370.89;;;5.62;58.81
60920;BME280;59039;52.108;19.942;2023-03-30T03:54:24;100367.69;;;5.62;58.91
60920;BME280;59039;52.108;19.942;2023-03-30T03:56:49;100367.98;;;5.63;58.89
60920;BME280;59039;52.108;19.942;2023-03-30T03:59:15;100362.77;;;5.63;58.76
60920;BME280;59039;52.108;19.942;2023-03-30T04:01:40;100359.84;;;5.63;58.90
60920;BME280;59039;52.108;19.942;2023-03-30T04:04:08;100357.84;;;5.64;59.05
60920;BME280;59039;52.108;19.942;2023-03-30T04:06:34;100354.52;;;5.65;59.29
60920;BME280;59039;52.108;19.942;2023-03-30T04:08:59;100349.98;;;5.65;59.35
60920;BME280;59039;52.108;19.942;2023-03-30T04:11:24;100351.95;;;5.65;59.16
60920;BME280;59039;52.108;19.942;2023-03-30T04:13:50;100345.70;;;5.67;59.29
60920;BME280;59039;52.108;19.942;2023-03-30T04:16:15;100343.30;;;5.68;59.45
60920;BME280;59039;52.108;19.942;2023-03-30T04:18:40;100343.58;;;5.69;59.56
60920;BME280;59039;52.108;19.942;2023-03-30T04:21:06;100341.42;;;5.69;59.48
60920;BME280;59039;52.108;19.942;2023-03-30T04:23:33;100343.17;;;5.70;59.68
60920;BME280;59039;52.108;19.942;2023-03-30T04:26:00;100340.75;;;5.71;59.60
60920;BME280;59039;52.108;19.942;2023-03-30T04:28:25;100338.21;;;5.71;60.00
60920;BME280;59039;52.108;19.942;2023-03-30T04:30:56;100332.94;;;5.72;59.86
60920;BME280;59039;52.108;19.942;2023-03-30T04:33:22;100332.54;;;5.72;59.86
60920;BME280;59039;52.108;19.942;2023-03-30T04:35:47;100330.53;;;5.72;60.03
60920;BME280;59039;52.108;19.942;2023-03-30T04:38:13;100330.77;;;5.74;60.15
60920;BME280;59039;52.108;19.942;2023-03-30T04:40:38;100327.64;;;5.75;60.08
60920;BME280;59039;52.108;19.942;2023-03-30T04:43:03;100328.09;;;5.76;60.18
60920;BME280;59039;52.108;19.942;2023-03-30T04:45:29;100333.35;;;5.77;60.26
60920;BME280;59039;52.108;19.942;2023-03-30T04:47:55;100332.41;;;5.78;60.71
60920;BME280;59039;52.108;19.942;2023-03-30T04:50:20;100333.83;;;5.78;60.88
60920;BME280;59039;52.108;19.942;2023-03-30T04:52:45;100330.39;;;5.78;60.54
60920;BME280;59039;52.108;19.942;2023-03-30T04:55:11;100324.57;;;5.79;60.72
60920;BME280;59039;52.108;19.942;2023-03-30T04:57:36;100319.86;;;5.80;60.71
60920;BME280;59039;52.108;19.942;2023-03-30T05:00:05;100318.19;;;5.80;60.97
60920;BME280;59039;52.108;19.942;2023-03-30T05:02:31;100316.02;;;5.80;61.14
60920;BME280;59039;52.108;19.942;2023-03-30T05:04:56;100316.27;;;5.82;61.68
60920;BME280;59039;52.108;19.942;2023-03-30T05:07:21;100317.09;;;5.83;61.83
60920;BME280;59039;52.108;19.942;2023-03-30T05:09:47;100311.99;;;5.83;62.54
60920;BME280;59039;52.108;19.942;2023-03-30T05:12:14;100308.71;;;5.84;62.15
60920;BME280;59039;52.108;19.942;2023-03-30T05:14:39;100305.42;;;5.84;62.35
60920;BME280;59039;52.108;19.942;2023-03-30T05:17:04;100310.55;;;5.86;62.28
60920;BME280;59039;52.108;19.942;2023-03-30T05:19:30;100306.73;;;5.86;62.64
60920;BME280;59039;52.108;19.942;2023-03-30T05:21:55;100312.80;;;5.87;62.81
60920;BME280;59039;52.108;19.942;2023-03-30T05:24:20;100313.45;;;5.88;62.96
60920;BME280;59039;52.108;19.942;2023-03-30T05:26:46;100312.67;;;5.89;62.74
60920;BME280;59039;52.108;19.942;2023-03-30T05:29:11;100313.62;;;5.90;62.68
60920;BME280;59039;52.108;19.942;2023-03-30T05:31:37;100308.50;;;5.91;62.72
60920;BME280;59039;52.108;19.942;2023-03-30T05:34:23;100308.38;;;5.93;63.23
60920;BME280;59039;52.108;19.942;2023-03-30T05:36:48;100307.33;;;5.95;63.54
60920;BME280;59039;52.108;19.942;2023-03-30T05:39:13;100303.58;;;5.97;63.10
60920;BME280;59039;52.108;19.942;2023-03-30T05:41:41;100303.26;;;5.98;62.77
60920;BME280;59039;52.108;19.942;2023-03-30T05:44:06;100298.42;;;6.00;62.86
60920;BME280;59039;52.108;19.942;2023-03-30T05:46:32;100296.70;;;6.02;63.16
60920;BME280;59039;52.108;19.942;2023-03-30T05:48:57;100294.06;;;6.03;62.73
60920;BME280;59039;52.108;19.942;2023-03-30T05:51:23;100291.61;;;6.04;62.79
60920;BME280;59039;52.108;19.942;2023-03-30T05:53:49;100292.00;;;6.06;63.05
60920;BME280;59039;52.108;19.942;2023-03-30T05:56:14;100292.60;;;6.08;62.81
60920;BME280;59039;52.108;19.942;2023-03-30T05:58:40;100291.14;;;6.10;63.28
60920;BME280;59039;52.108;19.942;2023-03-30T06:01:05;100288.37;;;6.13;62.89
60920;BME280;59039;52.108;19.942;2023-03-30T06:03:31;100287.92;;;6.16;63.20
60920;BME280;59039;52.108;19.942;2023-03-30T06:05:56;100289.10;;;6.19;63.12
60920;BME280;59039;52.108;19.942;2023-03-30T06:08:21;100287.91;;;6.22;63.02
60920;BME280;59039;52.108;19.942;2023-03-30T06:10:56;100284.65;;;6.25;63.09
60920;BME280;59039;52.108;19.942;2023-03-30T06:13:22;100289.09;;;6.27;63.46
60920;BME280;59039;52.108;19.942;2023-03-30T06:15:47;100291.27;;;6.30;63.20
60920;BME280;59039;52.108;19.942;2023-03-30T06:18:13;100293.73;;;6.33;63.09
60920;BME280;59039;52.108;19.942;2023-03-30T06:20:38;100294.09;;;6.35;63.16
60920;BME280;59039;52.108;19.942;2023-03-30T06:23:04;100293.91;;;6.37;63.17
60920;BME280;59039;52.108;19.942;2023-03-30T06:25:29;100288.67;;;6.39;63.16
60920;BME280;59039;52.108;19.942;2023-03-30T06:27:55;100289.48;;;6.42;62.84
60920;BME280;59039;52.108;19.942;2023-03-30T06:30:21;100292.67;;;6.45;62.84
60920;BME280;59039;52.108;19.942;2023-03-30T06:32:49;100291.23;;;6.47;62.90
60920;BME280;59039;52.108;19.942;2023-03-30T06:35:15;100294.80;;;6.49;62.97
60920;BME280;59039;52.108;19.942;2023-03-30T06:37:40;100296.02;;;6.52;62.97
60920;BME280;59039;52.108;19.942;2023-03-30T06:40:09;100296.59;;;6.54;63.06
60920;BME280;59039;52.108;19.942;2023-03-30T06:42:37;100299.30;;;6.56;63.09
60920;BME280;59039;52.108;19.942;2023-03-30T06:45:03;100294.59;;;6.58;63.27
60920;BME280;59039;52.108;19.942;2023-03-30T06:47:28;100293.51;;;6.60;63.08
60920;BME280;59039;52.108;19.942;2023-03-30T06:49:54;100292.13;;;6.63;62.88
60920;BME280;59039;52.108;19.942;2023-03-30T06:52:26;100289.90;;;6.66;63.35
60920;BME280;59039;52.108;19.942;2023-03-30T06:54:52;100284.38;;;6.70;63.47
60920;BME280;59039;52.108;19.942;2023-03-30T06:57:17;100280.86;;;6.73;63.88
60920;BME280;59039;52.108;19.942;2023-03-30T06:59:43;100276.06;;;6.77;63.62
60920;BME280;59039;52.108;19.942;2023-03-30T07:02:13;100274.45;;;6.80;63.68
60920;BME280;59039;52.108;19.942;2023-03-30T07:04:38;100271.13;;;6.84;63.83
60920;BME280;59039;52.108;19.942;2023-03-30T07:07:04;100265.71;;;6.88;63.50
60920;BME280;59039;52.108;19.942;2023-03-30T07:09:29;100267.71;;;6.92;63.49
60920;BME280;59039;52.108;19.942;2023-03-30T07:11:55;100266.23;;;6.94;63.81
60920;BME280;59039;52.108;19.942;2023-03-30T07:14:20;100264.52;;;6.97;63.99
60920;BME280;59039;52.108;19.942;2023-03-30T07:16:45;100261.24;;;7.00;64.04
60920;BME280;59039;52.108;19.942;2023-03-30T07:19:11;100258.27;;;7.03;64.01
60920;BME280;59039;52.108;19.942;2023-03-30T07:21:39;100262.44;;;7.06;63.81
60920;BME280;59039;52.108;19.942;2023-03-30T07:24:04;100263.02;;;7.10;64.02
60920;BME280;59039;52.108;19.942;2023-03-30T07:26:30;100262.48;;;7.14;63.80
60920;BME280;59039;52.108;19.942;2023-03-30T07:28:55;100259.70;;;7.18;64.00
60920;BME280;59039;52.108;19.942;2023-03-30T07:31:22;100253.19;;;7.22;64.03
60920;BME280;59039;52.108;19.942;2023-03-30T07:33:48;100250.13;;;7.25;64.36
60920;BME280;59039;52.108;19.942;2023-03-30T07:36:13;100253.30;;;7.30;64.33
60920;BME280;59039;52.108;19.942;2023-03-30T07:38:39;100246.05;;;7.35;63.94
60920;BME280;59039;52.108;19.942;2023-03-30T07:41:12;100240.91;;;7.40;63.67
60920;BME280;59039;52.108;19.942;2023-03-30T07:43:38;100241.77;;;7.44;64.04
60920;BME280;59039;52.108;19.942;2023-03-30T07:46:03;100241.22;;;7.50;63.74
60920;BME280;59039;52.108;19.942;2023-03-30T07:48:29;100237.61;;;7.56;63.65
60920;BME280;59039;52.108;19.942;2023-03-30T07:51:02;100239.48;;;7.63;63.71
60920;BME280;59039;52.108;19.942;2023-03-30T07:53:28;100238.97;;;7.71;63.87
60920;BME280;59039;52.108;19.942;2023-03-30T07:55:53;100233.04;;;7.81;63.67
60920;BME280;59039;52.108;19.942;2023-03-30T07:58:19;100228.54;;;7.90;63.54
60920;BME280;59039;52.108;19.942;2023-03-30T08:00:44;100223.68;;;8.00;63.62
60920;BME280;59039;52.108;19.942;2023-03-30T08:03:30;100223.14;;;8.11;63.57
60920;BME280;59039;52.108;19.942;2023-03-30T08:05:58;100222.52;;;8.22;63.68
60920;BME280;59039;52.108;19.942;2023-03-30T08:08:24;100220.92;;;8.31;63.51
60920;BME280;59039;52.108;19.942;2023-03-30T08:10:49;100223.16;;;8.43;63.29
60920;BME280;59039;52.108;19.942;2023-03-30T08:13:15;100219.89;;;8.50;63.54
60920;BME280;59039;52.108;19.942;2023-03-30T08:15:40;100217.34;;;8.58;63.51
60920;BME280;59039;52.108;19.942;2023-03-30T08:18:05;100216.54;;;8.66;63.16
60920;BME280;59039;52.108;19.942;2023-03-30T08:20:32;100207.74;;;8.75;63.15
60920;BME280;59039;52.108;19.942;2023-03-30T08:22:58;100205.01;;;8.83;63.08
60920;BME280;59039;52.108;19.942;2023-03-30T08:25:23;100198.07;;;8.91;63.13
60920;BME280;59039;52.108;19.942;2023-03-30T08:27:49;100196.64;;;9.00;63.06
60920;BME280;59039;52.108;19.942;2023-03-30T08:30:14;100195.25;;;9.12;62.66
60920;BME280;59039;52.108;19.942;2023-03-30T08:32:40;100193.08;;;9.24;62.49
60920;BME280;59039;52.108;19.942;2023-03-30T08:35:08;100186.70;;;9.35;62.29
60920;BME280;59039;52.108;19.942;2023-03-30T08:37:33;100183.92;;;9.45;62.25
60920;BME280;59039;52.108;19.942;2023-03-30T08:39:59;100180.23;;;9.56;62.01
60920;BME280;59039;52.108;19.942;2023-03-30T08:45:34;100187.55;;;9.77;61.72
60920;BME280;59039;52.108;19.942;2023-03-30T08:48:00;100186.90;;;9.87;61.48
60920;BME280;59039;52.108;19.942;2023-03-30T08:50:36;100184.71;;;9.96;61.44
60920;BME280;59039;52.108;19.942;2023-03-30T08:53:08;100183.31;;;10.06;61.49
60920;BME280;59039;52.108;19.942;2023-03-30T08:55:48;100186.52;;;10.17;61.43
60920;BME280;59039;52.108;19.942;2023-03-30T09:06:15;100176.12;;;10.57;60.50
60920;BME280;59039;52.108;19.942;2023-03-30T09:08:42;100171.68;;;10.64;60.31
60920;BME280;59039;52.108;19.942;2023-03-30T09:11:14;100170.80;;;10.72;60.10
60920;BME280;59039;52.108;19.942;2023-03-30T09:13:43;100166.01;;;10.77;59.97
60920;BME280;59039;52.108;19.942;2023-03-30T09:18:40;100160.58;;;10.84;59.60
60920;BME280;59039;52.108;19.942;2023-03-30T09:21:09;100160.21;;;10.87;59.47
60920;BME280;59039;52.108;19.942;2023-03-30T09:23:36;100154.99;;;10.91;59.40
60920;BME280;59039;52.108;19.942;2023-03-30T09:29:10;100141.08;;;10.98;59.56
60920;BME280;59039;52.108;19.942;2023-03-30T09:31:40;100140.67;;;11.02;59.53
60920;BME280;59039;52.108;19.942;2023-03-30T09:34:31;100137.00;;;11.06;59.51
60920;BME280;59039;52.108;19.942;2023-03-30T09:37:10;100129.46;;;11.11;59.50
60920;BME280;59039;52.108;19.942;2023-03-30T09:39:36;100122.11;;;11.17;59.79
60920;BME280;59039;52.108;19.942;2023-03-30T09:44:59;100110.80;;;11.29;59.75
60920;BME280;59039;52.108;19.942;2023-03-30T09:47:33;100103.23;;;11.37;59.58
60920;BME280;59039;52.108;19.942;2023-03-30T09:50:01;100097.63;;;11.45;59.32
60920;BME280;59039;52.108;19.942;2023-03-30T09:52:35;100093.29;;;11.51;59.27
60920;BME280;59039;52.108;19.942;2023-03-30T09:55:19;100087.20;;;11.59;59.21
60920;BME280;59039;52.108;19.942;2023-03-30T09:57:49;100082.79;;;11.67;59.24
60920;BME280;59039;52.108;19.942;2023-03-30T10:02:56;100059.00;;;11.84;58.93
60920;BME280;59039;52.108;19.942;2023-03-30T10:05:22;100054.67;;;11.92;58.98
60920;BME280;59039;52.108;19.942;2023-03-30T10:07:56;100052.38;;;12.01;58.78
60920;BME280;59039;52.108;19.942;2023-03-30T10:13:00;100044.42;;;12.14;58.63
60920;BME280;59039;52.108;19.942;2023-03-30T10:15:27;100038.18;;;12.21;58.20
60920;BME280;59039;52.108;19.942;2023-03-30T10:17:53;100031.72;;;12.26;58.36
60920;BME280;59039;52.108;19.942;2023-03-30T10:20:29;100025.59;;;12.35;58.24
60920;BME280;59039;52.108;19.942;2023-03-30T10:23:17;100022.90;;;12.49;58.32
60920;BME280;59039;52.108;19.942;2023-03-30T10:25:45;100028.70;;;12.71;57.92
60920;BME280;59039;52.108;19.942;2023-03-30T10:28:25;100024.63;;;12.93;57.87
60920;BME280;59039;52.108;19.942;2023-03-30T10:31:03;100018.83;;;13.26;57.58
60920;BME280;59039;52.108;19.942;2023-03-30T10:33:30;100010.77;;;13.47;56.98
60920;BME280;59039;52.108;19.942;2023-03-30T10:35:59;100008.83;;;13.62;56.68
60920;BME280;59039;52.108;19.942;2023-03-30T10:38:34;100003.46;;;13.73;56.55
60920;BME280;59039;52.108;19.942;2023-03-30T10:41:06;100000.50;;;13.82;56.48
60920;BME280;59039;52.108;19.942;2023-03-30T10:43:32;99994.10;;;13.90;56.21
60920;BME280;59039;52.108;19.942;2023-03-30T10:46:25;99983.58;;;13.94;56.43
60920;BME280;59039;52.108;19.942;2023-03-30T10:49:30;99986.44;;;14.00;56.17
60920;BME280;59039;52.108;19.942;2023-03-30T10:52:26;99981.31;;;14.07;56.05
60920;BME280;59039;52.108;19.942;2023-03-30T10:55:02;99974.19;;;14.11;56.10
60920;BME280;59039;52.108;19.942;2023-03-30T10:57:42;99965.73;;;14.13;55.86
60920;BME280;59039;52.108;19.942;2023-03-30T11:00:16;99965.96;;;14.14;55.68
60920;BME280;59039;52.108;19.942;2023-03-30T11:02:50;99957.48;;;14.15;55.55
60920;BME280;59039;52.108;19.942;2023-03-30T11:07:51;99944.59;;;14.11;55.60
60920;BME280;59039;52.108;19.942;2023-03-30T11:10:21;99948.70;;;14.13;55.67
60920;BME280;59039;52.108;19.942;2023-03-30T11:12:54;99943.85;;;14.15;55.67
60920;BME280;59039;52.108;19.942;2023-03-30T11:15:25;99937.84;;;14.16;55.65
60920;BME280;59039;52.108;19.942;2023-03-30T11:18:13;99942.23;;;14.16;55.75
60920;BME280;59039;52.108;19.942;2023-03-30T11:20:51;99945.77;;;14.17;55.89
60920;BME280;59039;52.108;19.942;2023-03-30T11:26:06;99948.04;;;14.21;55.60
60920;BME280;59039;52.108;19.942;2023-03-30T11:31:26;99949.90;;;14.21;55.28
60920;BME280;59039;52.108;19.942;2023-03-30T11:37:05;99946.94;;;14.19;55.36
60920;BME280;59039;52.108;19.942;2023-03-30T11:39:33;99944.07;;;14.19;55.49
60920;BME280;59039;52.108;19.942;2023-03-30T11:44:38;99934.04;;;14.21;55.39
60920;BME280;59039;52.108;19.942;2023-03-30T11:52:35;99930.99;;;14.22;55.59
60920;BME280;59039;52.108;19.942;2023-03-30T11:55:21;99928.31;;;14.23;55.35
60920;BME280;59039;52.108;19.942;2023-03-30T12:05:49;99918.48;;;14.24;55.54
60920;BME280;59039;52.108;19.942;2023-03-30T12:08:38;99913.98;;;14.25;55.85
60920;BME280;59039;52.108;19.942;2023-03-30T12:14:37;99910.98;;;14.30;56.02
60920;BME280;59039;52.108;19.942;2023-03-30T12:17:13;99908.20;;;14.33;56.01
60920;BME280;59039;52.108;19.942;2023-03-30T12:19:44;99906.33;;;14.38;56.00
60920;BME280;59039;52.108;19.942;2023-03-30T12:22:24;99902.85;;;14.43;56.08
60920;BME280;59039;52.108;19.942;2023-03-30T12:25:21;99902.98;;;14.48;56.15
60920;BME280;59039;52.108;19.942;2023-03-30T12:27:56;99904.56;;;14.52;56.01
60920;BME280;59039;52.108;19.942;2023-03-30T12:30:25;99906.23;;;14.57;56.01
60920;BME280;59039;52.108;19.942;2023-03-30T12:33:09;99899.67;;;14.60;56.00
60920;BME280;59039;52.108;19.942;2023-03-30T12:35:52;99896.17;;;14.63;56.21
60920;BME280;59039;52.108;19.942;2023-03-30T12:38:35;99895.46;;;14.64;56.10
60920;BME280;59039;52.108;19.942;2023-03-30T12:41:04;99900.40;;;14.66;55.97
60920;BME280;59039;52.108;19.942;2023-03-30T12:46:14;99899.23;;;14.65;55.71
60920;BME280;59039;52.108;19.942;2023-03-30T12:48:44;99897.73;;;14.64;55.74
60920;BME280;59039;52.108;19.942;2023-03-30T13:05:33;99885.91;;;14.48;54.89
60920;BME280;59039;52.108;19.942;2023-03-30T13:08:05;99880.89;;;14.45;54.79
60920;BME280;59039;52.108;19.942;2023-03-30T13:10:35;99884.09;;;14.43;54.59
60920;BME280;59039;52.108;19.942;2023-03-30T13:13:03;99879.23;;;14.41;54.85
60920;BME280;59039;52.108;19.942;2023-03-30T13:15:33;99874.46;;;14.38;54.72
60920;BME280;59039;52.108;19.942;2023-03-30T13:20:58;99870.81;;;14.32;54.62
60920;BME280;59039;52.108;19.942;2023-03-30T13:26:24;99865.94;;;14.26;55.03
60920;BME280;59039;52.108;19.942;2023-03-30T13:34:15;99851.95;;;14.13;55.54
60920;BME280;59039;52.108;19.942;2023-03-30T13:39:34;99844.64;;;14.06;56.18
60920;BME280;59039;52.108;19.942;2023-03-30T13:42:17;99842.09;;;14.03;56.65
60920;BME280;59039;52.108;19.942;2023-03-30T13:48:02;99831.23;;;13.95;56.75
60920;BME280;59039;52.108;19.942;2023-03-30T13:50:32;99827.13;;;13.90;57.24
60920;BME280;59039;52.108;19.942;2023-03-30T13:53:00;99823.20;;;13.86;57.09
60920;BME280;59039;52.108;19.942;2023-03-30T13:55:41;99821.35;;;13.82;57.02
60920;BME280;59039;52.108;19.942;2023-03-30T13:58:17;99815.95;;;13.77;57.08
60920;BME280;59039;52.108;19.942;2023-03-30T14:00:50;99816.64;;;13.72;57.16
60920;BME280;59039;52.108;19.942;2023-03-30T14:03:32;99815.27;;;13.66;57.10
60920;BME280;59039;52.108;19.942;2023-03-30T14:08:41;99806.36;;;13.57;57.28
60920;BME280;59039;52.108;19.942;2023-03-30T14:11:12;99799.89;;;13.54;57.27
60920;BME280;59039;52.108;19.942;2023-03-30T14:13:38;99801.31;;;13.50;57.30
60920;BME280;59039;52.108;19.942;2023-03-30T14:16:05;99798.90;;;13.46;57.43
60920;BME280;59039;52.108;19.942;2023-03-30T14:18:30;99802.89;;;13.43;57.78
60920;BME280;59039;52.108;19.942;2023-03-30T14:20:58;99798.63;;;13.41;57.47
60920;BME280;59039;52.108;19.942;2023-03-30T14:23:31;99794.48;;;13.35;57.71
60920;BME280;59039;52.108;19.942;2023-03-30T14:26:04;99791.16;;;13.30;57.69
60920;BME280;59039;52.108;19.942;2023-03-30T14:28:33;99792.61;;;13.25;57.83
60920;BME280;59039;52.108;19.942;2023-03-30T14:31:01;99794.01;;;13.23;58.10
60920;BME280;59039;52.108;19.942;2023-03-30T14:33:27;99790.25;;;13.21;57.95
60920;BME280;59039;52.108;19.942;2023-03-30T14:35:54;99786.39;;;13.18;58.10
60920;BME280;59039;52.108;19.942;2023-03-30T14:38:38;99779.63;;;13.15;58.03
60920;BME280;59039;52.108;19.942;2023-03-30T14:41:06;99780.83;;;13.11;58.36
60920;BME280;59039;52.108;19.942;2023-03-30T14:43:32;99786.14;;;13.10;58.43
60920;BME280;59039;52.108;19.942;2023-03-30T14:46:02;99782.33;;;13.08;58.36
60920;BME280;59039;52.108;19.942;2023-03-30T14:48:34;99787.14;;;13.07;58.44
60920;BME280;59039;52.108;19.942;2023-03-30T14:51:01;99784.69;;;13.07;58.71
60920;BME280;59039;52.108;19.942;2023-03-30T14:53:28;99782.51;;;13.05;58.91
60920;BME280;59039;52.108;19.942;2023-03-30T14:55:56;99776.02;;;13.05;59.15
60920;BME280;59039;52.108;19.942;2023-03-30T14:58:27;99768.35;;;13.05;58.93
60920;BME280;59039;52.108;19.942;2023-03-30T15:00:57;99762.35;;;13.05;59.14
60920;BME280;59039;52.108;19.942;2023-03-30T15:03:26;99753.24;;;13.05;59.07
60920;BME280;59039;52.108;19.942;2023-03-30T15:05:52;99750.30;;;13.05;59.48